Time;durP1;ratioP1;P1;durP2;ratioP2;P2;SDS_P1;SDS_P2;PMS_P1;PMS_P2;Temp;Humidity;BMP_temperature;BMP_pressure;BME280_temperature;BME280_humidity;BME280_pressure;Samples;Min_cycle;Max_cycle;Signal;HPM_P1;HPM_P2
2022/09/23 00:00:26;;;;;;;8.57;4.90;;;11.50;99.90;;;;;;5036698;28;20211;-74
2022/09/23 00:02:54;;;;;;;7.15;5.20;;;11.50;99.90;;;;;;5041072;28;20629;-72
2022/09/23 00:05:21;;;;;;;5.25;4.75;;;11.50;99.90;;;;;;5039312;28;20387;-74
2022/09/23 00:07:48;;;;;;;6.60;5.15;;;11.50;99.90;;;;;;5043085;28;20236;-74
2022/09/23 00:10:15;;;;;;;8.52;5.20;;;11.50;99.90;;;;;;5042871;28;20244;-73
2022/09/23 00:12:42;;;;;;;5.43;4.93;;;11.40;99.90;;;;;;5035906;28;20213;-73
2022/09/23 00:15:10;;;;;;;9.00;5.80;;;11.30;99.90;;;;;;5040822;28;20275;-74
2022/09/23 00:17:39;;;;;;;6.68;5.05;;;11.30;99.90;;;;;;5036102;28;20572;-75
2022/09/23 00:20:09;;;;;;;6.40;5.78;;;11.30;99.90;;;;;;5038256;28;20615;-75
2022/09/23 00:22:36;;;;;;;8.73;5.20;;;11.20;99.90;;;;;;5046998;28;20209;-72
2022/09/23 00:25:03;;;;;;;5.60;4.35;;;11.20;99.90;;;;;;5036229;28;20301;-74
2022/09/23 00:27:32;;;;;;;7.40;4.55;;;11.20;99.90;;;;;;5039219;28;20220;-74
2022/09/23 00:30:00;;;;;;;5.70;4.75;;;11.30;99.90;;;;;;5036972;28;20639;-74
2022/09/23 00:32:27;;;;;;;7.07;5.35;;;11.20;99.90;;;;;;5041487;28;20218;-74
2022/09/23 00:34:54;;;;;;;4.85;4.45;;;11.20;99.90;;;;;;5041718;28;20239;-73
2022/09/23 00:37:22;;;;;;;5.80;5.15;;;11.20;99.90;;;;;;5045638;28;20224;-76
2022/09/23 00:39:49;;;;;;;8.75;5.20;;;11.10;99.90;;;;;;5034882;28;20222;-74
2022/09/23 00:42:19;;;;;;;6.40;5.70;;;11.10;99.90;;;;;;5044830;28;20292;-72
2022/09/23 00:44:49;;;;;;;6.13;5.53;;;11.10;99.90;;;;;;5051541;28;20690;-76
2022/09/23 00:47:21;;;;;;;7.93;6.03;;;11.00;99.90;;;;;;5036416;28;20264;-74
2022/09/23 00:50:00;;;;;;;7.10;5.85;;;11.00;99.90;;;;;;5041357;28;20244;-73
2022/09/23 00:52:30;;;;;;;5.80;5.30;;;11.00;99.90;;;;;;5046465;28;20264;-71
2022/09/23 00:54:59;;;;;;;5.00;4.60;;;10.90;99.90;;;;;;5050107;28;20203;-72
2022/09/23 00:57:28;;;;;;;7.20;6.47;;;10.90;99.90;;;;;;5058033;28;20239;-74
2022/09/23 00:59:56;;;;;;;5.90;5.30;;;10.80;99.90;;;;;;5062113;28;20201;-70
2022/09/23 01:02:24;;;;;;;6.93;5.50;;;10.80;99.90;;;;;;5049443;28;20246;-73
2022/09/23 01:04:52;;;;;;;5.18;4.70;;;10.80;99.90;;;;;;5043233;28;20203;-72
2022/09/23 01:07:20;;;;;;;6.35;5.30;;;10.80;99.90;;;;;;5037155;28;20726;-75
2022/09/23 01:09:49;;;;;;;6.28;5.28;;;10.70;99.90;;;;;;5047182;28;20295;-74
2022/09/23 01:12:30;;;;;;;6.65;5.40;;;10.80;99.90;;;;;;5049783;28;20246;-72
2022/09/23 01:15:08;;;;;;;4.78;4.25;;;10.70;99.90;;;;;;5037268;28;20262;-73
2022/09/23 01:17:43;;;;;;;5.30;4.80;;;10.70;99.90;;;;;;5051112;28;20322;-75
2022/09/23 01:20:33;;;;;;;5.40;4.65;;;10.70;99.90;;;;;;5035205;28;20196;-72
2022/09/23 01:23:13;;;;;;;7.82;5.72;;;10.70;99.90;;;;;;5049225;28;20295;-75
2022/09/23 01:26:00;;;;;;;5.88;4.70;;;10.70;99.90;;;;;;5038165;28;20204;-72
2022/09/23 01:28:42;;;;;;;6.15;5.60;;;10.70;99.90;;;;;;5030056;28;20229;-73
2022/09/23 01:31:16;;;;;;;6.05;4.90;;;10.70;99.90;;;;;;5040306;28;20212;-72
2022/09/23 01:33:52;;;;;;;8.05;5.47;;;10.60;99.90;;;;;;5032567;28;20228;-74
2022/09/23 01:36:23;;;;;;;5.53;4.68;;;10.60;99.90;;;;;;5025687;28;20199;-74
2022/09/23 01:38:58;;;;;;;5.60;5.10;;;10.60;99.90;;;;;;5043149;28;20200;-73
2022/09/23 01:41:50;;;;;;;6.07;5.18;;;10.60;99.90;;;;;;5041882;28;20206;-73
2022/09/23 01:44:22;;;;;;;6.13;5.50;;;10.60;99.90;;;;;;5046410;28;20287;-73
2022/09/23 01:46:54;;;;;;;5.72;4.72;;;10.50;99.90;;;;;;5051483;28;20314;-74
2022/09/23 01:49:27;;;;;;;6.53;5.70;;;10.50;99.90;;;;;;5049282;28;20294;-73
2022/09/23 01:51:59;;;;;;;5.43;4.93;;;10.50;99.90;;;;;;5029656;28;20303;-75
2022/09/23 01:54:30;;;;;;;5.50;5.00;;;10.40;99.90;;;;;;5050219;28;20218;-72
2022/09/23 01:57:04;;;;;;;4.97;4.00;;;10.40;99.90;;;;;;5038771;28;20235;-74
2022/09/23 01:59:35;;;;;;;6.45;4.95;;;10.40;99.90;;;;;;5040954;28;20200;-71
2022/09/23 02:02:10;;;;;;;9.40;5.40;;;10.40;99.90;;;;;;5044029;28;20302;-72
2022/09/23 02:04:44;;;;;;;8.98;4.80;;;10.30;99.90;;;;;;5019680;28;20269;-75
2022/09/23 02:07:19;;;;;;;4.88;4.35;;;10.30;99.90;;;;;;5019243;28;20230;-74
2022/09/23 02:09:51;;;;;;;7.38;4.80;;;10.30;99.90;;;;;;5037686;28;20219;-74
2022/09/23 02:12:23;;;;;;;4.85;4.35;;;10.30;99.90;;;;;;5041223;28;20230;-73
2022/09/23 02:14:55;;;;;;;4.78;4.32;;;10.30;99.90;;;;;;5046659;28;20223;-73
2022/09/23 02:17:28;;;;;;;5.68;5.07;;;10.30;99.90;;;;;;5036883;28;20235;-74
2022/09/23 02:20:00;;;;;;;7.82;5.35;;;10.30;99.90;;;;;;5043858;28;20303;-73
2022/09/23 02:22:30;;;;;;;5.07;4.57;;;10.30;99.90;;;;;;5042624;28;20196;-72
2022/09/23 02:24:58;;;;;;;4.93;4.45;;;10.30;99.90;;;;;;5048203;28;20207;-72
2022/09/23 02:27:32;;;;;;;7.25;5.00;;;10.20;99.90;;;;;;5041868;28;20215;-74
2022/09/23 02:30:07;;;;;;;5.93;5.35;;;10.20;99.90;;;;;;5046858;28;20289;-74
2022/09/23 02:32:47;;;;;;;5.88;5.28;;;10.20;99.90;;;;;;5039782;28;20253;-75
2022/09/23 02:35:21;;;;;;;12.27;4.68;;;10.20;99.90;;;;;;5032358;28;20688;-73
2022/09/23 02:37:57;;;;;;;9.05;4.80;;;10.20;99.90;;;;;;5028372;28;20231;-73
2022/09/23 02:40:30;;;;;;;7.82;5.53;;;10.20;99.90;;;;;;5030773;28;20203;-74
2022/09/23 02:43:04;;;;;;;5.32;4.13;;;10.30;99.90;;;;;;5037925;28;20201;-72
2022/09/23 02:45:32;;;;;;;9.43;5.70;;;10.30;99.90;;;;;;5060603;28;20233;-74
2022/09/23 02:48:05;;;;;;;5.05;4.55;;;10.30;99.90;;;;;;5042617;28;20697;-72
2022/09/23 02:50:33;;;;;;;5.72;4.88;;;10.30;99.90;;;;;;5054318;28;20208;-73
2022/09/23 02:53:01;;;;;;;5.88;4.07;;;10.30;99.90;;;;;;5041106;28;20307;-74
2022/09/23 02:55:31;;;;;;;5.38;4.88;;;10.30;99.90;;;;;;5047330;28;20310;-71
2022/09/23 02:58:00;;;;;;;5.90;5.10;;;10.20;99.90;;;;;;5041987;28;20235;-72
2022/09/23 03:00:34;;;;;;;5.57;5.05;;;10.20;99.90;;;;;;5038903;28;20230;-75
2022/09/23 03:03:22;;;;;;;5.03;4.63;;;10.20;99.90;;;;;;5035198;28;20666;-73
2022/09/23 03:05:54;;;;;;;5.15;4.70;;;10.30;99.90;;;;;;5039024;28;20622;-73
2022/09/23 03:08:36;;;;;;;4.63;4.22;;;10.30;99.90;;;;;;5040804;28;20232;-71
2022/09/23 03:11:07;;;;;;;5.80;4.78;;;10.20;99.90;;;;;;5024172;28;20203;-74
2022/09/23 03:13:46;;;;;;;5.80;4.90;;;10.20;99.90;;;;;;5048978;28;20228;-73
2022/09/23 03:16:24;;;;;;;5.15;4.45;;;10.30;99.90;;;;;;5032379;28;20283;-72
2022/09/23 03:18:58;;;;;;;5.07;4.55;;;10.30;99.90;;;;;;5024025;28;20325;-74
2022/09/23 03:21:29;;;;;;;5.82;4.68;;;10.30;99.90;;;;;;5051791;28;20223;-72
2022/09/23 03:24:00;;;;;;;5.72;4.95;;;10.30;99.90;;;;;;5044194;28;20192;-71
2022/09/23 03:26:31;;;;;;;5.00;4.50;;;10.30;99.90;;;;;;5053530;28;20207;-72
2022/09/23 03:29:02;;;;;;;6.00;4.90;;;10.20;99.90;;;;;;5038833;28;20278;-73
2022/09/23 03:31:29;;;;;;;4.50;4.10;;;10.30;99.90;;;;;;5038822;28;20224;-71
2022/09/23 03:34:01;;;;;;;9.73;5.88;;;10.20;99.90;;;;;;5043655;28;20232;-73
2022/09/23 03:36:51;;;;;;;5.95;5.40;;;10.20;99.90;;;;;;5051935;28;20211;-73
2022/09/23 03:39:28;;;;;;;5.93;5.07;;;10.20;99.90;;;;;;5043350;28;20204;-74
2022/09/23 03:41:58;;;;;;;6.55;4.95;;;10.30;99.90;;;;;;5053080;28;20227;-73
2022/09/23 03:44:27;;;;;;;6.32;4.63;;;10.30;99.90;;;;;;5047362;28;20200;-74
2022/09/23 03:46:54;;;;;;;7.30;4.50;;;10.30;99.90;;;;;;5054472;28;20247;-73
2022/09/23 03:49:28;;;;;;;5.47;4.97;;;10.20;99.90;;;;;;5051257;28;20283;-74
2022/09/23 03:51:55;;;;;;;5.65;4.25;;;10.30;99.90;;;;;;5045941;28;20374;-72
2022/09/23 03:54:22;;;;;;;6.15;4.25;;;10.30;99.90;;;;;;5050647;28;20316;-73
2022/09/23 03:56:48;;;;;;;5.00;4.43;;;10.20;99.90;;;;;;5052822;28;20306;-74
2022/09/23 03:59:16;;;;;;;4.55;4.15;;;10.30;99.90;;;;;;5053844;28;20282;-73
2022/09/23 04:01:44;;;;;;;5.38;4.65;;;10.30;99.90;;;;;;5044450;28;20282;-72
2022/09/23 04:04:11;;;;;;;4.85;4.45;;;10.20;99.90;;;;;;5046208;28;20204;-73
2022/09/23 04:06:40;;;;;;;7.20;5.35;;;10.10;99.90;;;;;;5051997;28;20326;-74
2022/09/23 04:09:07;;;;;;;5.63;4.38;;;10.10;99.90;;;;;;5053811;28;20206;-74
2022/09/23 04:11:34;;;;;;;6.32;4.88;;;10.10;99.90;;;;;;5052601;28;20564;-73
2022/09/23 04:14:01;;;;;;;5.82;5.30;;;10.10;99.90;;;;;;5053530;28;20250;-72
2022/09/23 04:16:28;;;;;;;6.82;4.78;;;10.10;99.90;;;;;;5052502;28;20209;-74
2022/09/23 04:18:55;;;;;;;6.03;4.95;;;10.10;99.90;;;;;;5050890;28;20313;-74
2022/09/23 04:21:22;;;;;;;5.50;4.80;;;10.00;99.90;;;;;;5052649;28;20560;-73
2022/09/23 04:23:50;;;;;;;5.13;4.70;;;10.00;99.90;;;;;;5045563;28;20633;-73
2022/09/23 04:26:17;;;;;;;6.57;5.13;;;10.00;99.90;;;;;;5045348;28;20314;-75
2022/09/23 04:28:44;;;;;;;6.97;5.45;;;10.00;99.90;;;;;;5044134;28;20220;-72
2022/09/23 04:31:12;;;;;;;5.00;3.95;;;9.90;99.90;;;;;;5049543;28;20224;-71
2022/09/23 04:33:39;;;;;;;5.28;4.78;;;10.00;99.90;;;;;;5047218;28;20283;-72
2022/09/23 04:36:06;;;;;;;7.30;5.38;;;10.00;99.90;;;;;;5046349;28;20298;-73
2022/09/23 04:38:34;;;;;;;5.88;4.65;;;10.00;99.90;;;;;;5048492;28;20330;-72
2022/09/23 04:41:02;;;;;;;10.05;4.70;;;10.00;99.90;;;;;;5039776;28;20240;-76
2022/09/23 04:43:29;;;;;;;6.78;5.45;;;10.00;99.90;;;;;;5045214;28;20635;-74
2022/09/23 04:46:00;;;;;;;5.38;4.65;;;10.00;99.90;;;;;;5041067;28;20208;-72
2022/09/23 04:48:27;;;;;;;6.43;5.15;;;10.00;99.90;;;;;;5052419;28;20243;-75
2022/09/23 04:50:54;;;;;;;5.68;4.50;;;9.90;99.90;;;;;;5042846;28;20210;-72
2022/09/23 04:53:21;;;;;;;5.18;4.78;;;9.90;99.90;;;;;;5039832;28;20736;-75
2022/09/23 04:55:49;;;;;;;6.53;4.95;;;9.90;99.90;;;;;;5047755;28;20255;-73
2022/09/23 04:58:21;;;;;;;9.40;5.30;;;9.80;99.90;;;;;;5047459;28;20277;-73
2022/09/23 05:00:49;;;;;;;10.20;5.32;;;9.80;99.90;;;;;;5045312;28;20200;-75
2022/09/23 05:03:16;;;;;;;6.18;5.53;;;9.80;99.90;;;;;;5052434;28;20230;-75
2022/09/23 05:05:43;;;;;;;5.75;5.18;;;9.80;99.90;;;;;;5053932;28;20621;-73
2022/09/23 05:08:10;;;;;;;6.40;5.75;;;9.80;99.90;;;;;;5050947;28;20592;-73
2022/09/23 05:10:37;;;;;;;5.85;5.25;;;9.70;99.90;;;;;;5049190;28;20192;-74
2022/09/23 05:13:04;;;;;;;5.20;4.70;;;9.80;99.90;;;;;;5039044;28;20288;-73
2022/09/23 05:15:32;;;;;;;8.23;7.53;;;9.80;99.90;;;;;;5046922;28;20229;-74
2022/09/23 05:18:01;;;;;;;4.63;4.22;;;9.80;99.90;;;;;;5047975;28;20237;-75
2022/09/23 05:20:28;;;;;;;5.75;4.47;;;9.80;99.90;;;;;;5041149;28;20200;-74
2022/09/23 05:22:56;;;;;;;6.72;4.22;;;9.90;99.90;;;;;;5042494;28;20318;-73
2022/09/23 05:25:23;;;;;;;6.88;4.75;;;9.90;99.90;;;;;;5050738;28;20254;-73
2022/09/23 05:27:50;;;;;;;6.70;4.70;;;9.80;99.90;;;;;;5041867;28;20238;-72
2022/09/23 05:30:17;;;;;;;5.55;5.15;;;9.80;99.90;;;;;;5044229;28;20200;-73
2022/09/23 05:32:45;;;;;;;7.05;5.50;;;9.80;99.90;;;;;;5047308;28;20211;-73
2022/09/23 05:35:12;;;;;;;5.80;5.07;;;9.80;99.90;;;;;;5043932;28;20258;-73
2022/09/23 05:37:39;;;;;;;6.22;5.63;;;9.80;99.90;;;;;;5047435;28;20220;-74
2022/09/23 05:40:06;;;;;;;5.50;5.00;;;9.90;99.90;;;;;;5048530;28;20213;-74
2022/09/23 05:42:34;;;;;;;7.38;5.78;;;9.90;99.90;;;;;;5039565;28;20200;-74
2022/09/23 05:45:01;;;;;;;7.50;5.40;;;9.90;99.90;;;;;;5040016;28;20583;-75
2022/09/23 05:47:28;;;;;;;6.15;4.35;;;9.90;99.90;;;;;;5043547;28;20733;-76
2022/09/23 05:49:57;;;;;;;6.85;5.10;;;9.90;99.90;;;;;;5045598;28;20267;-74
2022/09/23 05:52:25;;;;;;;8.82;5.95;;;9.80;99.90;;;;;;5037678;28;20203;-74
2022/09/23 05:54:53;;;;;;;6.57;5.97;;;9.80;99.90;;;;;;5051161;28;20316;-72
2022/09/23 05:57:20;;;;;;;6.55;5.72;;;9.90;99.90;;;;;;5039890;28;20305;-73
2022/09/23 05:59:47;;;;;;;5.93;4.50;;;10.00;99.90;;;;;;5039933;28;20270;-73
2022/09/23 06:02:14;;;;;;;6.40;4.72;;;9.90;99.90;;;;;;5045061;28;20203;-73
2022/09/23 06:04:41;;;;;;;7.10;4.95;;;9.90;99.90;;;;;;5043121;28;20203;-73
2022/09/23 06:07:10;;;;;;;7.75;4.60;;;10.00;99.90;;;;;;5046193;28;20247;-74
2022/09/23 06:09:37;;;;;;;8.85;4.75;;;10.10;99.90;;;;;;5041880;28;20367;-72
2022/09/23 06:12:05;;;;;;;5.55;4.68;;;10.10;99.90;;;;;;5043086;28;20204;-72
2022/09/23 06:14:32;;;;;;;5.80;4.60;;;10.20;99.90;;;;;;5058360;28;20211;-73
2022/09/23 06:17:00;;;;;;;8.30;4.70;;;10.30;99.90;;;;;;5060380;28;20291;-71
2022/09/23 06:19:27;;;;;;;5.93;5.32;;;10.40;99.90;;;;;;5044710;28;20610;-73
2022/09/23 06:21:54;;;;;;;9.30;5.00;;;10.60;99.90;;;;;;5039246;28;20196;-73
2022/09/23 06:24:23;;;;;;;8.32;4.63;;;10.70;99.90;;;;;;5040106;28;20285;-72
2022/09/23 06:26:50;;;;;;;12.25;4.20;;;11.20;99.90;;;;;;5047838;28;20287;-73
2022/09/23 06:29:17;;;;;;;4.90;4.28;;;11.50;99.90;;;;;;5041102;28;20861;-72
2022/09/23 06:31:44;;;;;;;3.80;3.45;;;12.00;99.90;;;;;;5047577;28;20202;-71
2022/09/23 06:34:13;;;;;;;9.27;3.92;;;12.90;99.90;;;;;;5049275;28;20204;-69
2022/09/23 06:36:40;;;;;;;4.50;3.33;;;14.00;99.90;;;;;;5048697;28;20238;-72
2022/09/23 06:39:08;;;;;;;7.05;3.90;;;14.90;99.90;;;;;;5053543;28;20197;-69
2022/09/23 06:41:37;;;;;;;6.88;3.67;;;15.50;99.90;;;;;;5044116;28;20287;-71
2022/09/23 06:44:04;;;;;;;7.30;4.13;;;16.00;99.90;;;;;;5041374;28;20293;-72
2022/09/23 06:46:31;;;;;;;6.85;3.50;;;16.10;99.90;;;;;;5047384;28;20536;-72
2022/09/23 06:48:58;;;;;;;4.30;3.30;;;16.70;99.90;;;;;;5044852;28;20201;-73
2022/09/23 06:51:25;;;;;;;4.03;2.90;;;17.20;99.90;;;;;;5046699;28;20449;-74
2022/09/23 06:53:52;;;;;;;8.70;3.03;;;18.00;98.60;;;;;;5034995;28;20446;-73
2022/09/23 06:56:20;;;;;;;4.70;3.53;;;18.30;96.20;;;;;;5038243;28;20563;-72
2022/09/23 06:58:51;;;;;;;4.63;3.30;;;19.40;95.20;;;;;;5046099;28;20520;-74
2022/09/23 07:01:18;;;;;;;5.47;2.93;;;19.50;93.40;;;;;;5046288;28;20937;-73
2022/09/23 07:03:47;;;;;;;6.10;3.00;;;19.80;92.20;;;;;;5039603;28;20447;-75
2022/09/23 07:06:14;;;;;;;4.90;3.30;;;20.30;91.00;;;;;;5037267;28;20967;-74
2022/09/23 07:08:45;;;;;;;12.13;3.50;;;20.30;91.10;;;;;;5040204;28;20839;-74
2022/09/23 07:11:12;;;;;;;3.30;2.70;;;20.40;90.60;;;;;;5047027;28;20456;-73
2022/09/23 07:13:40;;;;;;;4.90;2.90;;;20.50;90.30;;;;;;5041651;28;20545;-72
2022/09/23 07:16:10;;;;;;;9.27;3.67;;;20.00;90.40;;;;;;5038108;28;20837;-73
2022/09/23 07:18:37;;;;;;;3.23;2.40;;;19.90;90.50;;;;;;5037555;28;20561;-75
2022/09/23 07:21:10;;;;;;;5.00;2.60;;;20.10;90.60;;;;;;5038178;28;20442;-73
2022/09/23 07:23:37;;;;;;;4.93;3.13;;;19.90;90.20;;;;;;5042058;28;20443;-75
2022/09/23 07:26:06;;;;;;;2.87;2.50;;;20.10;90.20;;;;;;5043043;28;20532;-74
2022/09/23 07:28:33;;;;;;;5.20;3.37;;;20.40;90.00;;;;;;5040611;28;20551;-73
2022/09/23 07:31:05;;;;;;;4.77;2.80;;;20.60;89.10;;;;;;5039249;28;20531;-73
2022/09/23 07:33:33;;;;;;;2.80;2.50;;;20.40;89.30;;;;;;5038609;28;20455;-75
2022/09/23 07:36:05;;;;;;;3.60;2.90;;;20.50;88.60;;;;;;5039876;28;20496;-74
2022/09/23 07:38:32;;;;;;;6.43;2.63;;;20.50;87.90;;;;;;5039030;28;20492;-73
2022/09/23 07:41:04;;;;;;;4.23;3.00;;;21.20;87.80;;;;;;5041702;28;20514;-72
2022/09/23 07:43:31;;;;;;;5.27;2.90;;;21.90;86.30;;;;;;5039014;28;20478;-74
2022/09/23 07:46:01;;;;;;;3.27;2.20;;;22.20;84.10;;;;;;5039504;28;20450;-73
2022/09/23 07:48:28;;;;;;;6.00;3.17;;;22.20;82.20;;;;;;5034992;28;20530;-74
2022/09/23 07:50:58;;;;;;;6.20;2.73;;;22.60;83.00;;;;;;5045332;28;20477;-73
2022/09/23 07:53:25;;;;;;;2.53;2.30;;;22.80;82.30;;;;;;5037999;28;20447;-73
2022/09/23 07:55:53;;;;;;;4.50;3.00;;;23.10;80.10;;;;;;5042983;28;20928;-73
2022/09/23 07:58:21;;;;;;;5.17;3.00;;;22.70;80.80;;;;;;5047136;28;21008;-73
2022/09/23 08:00:52;;;;;;;5.03;2.60;;;22.90;79.80;;;;;;5051821;28;20556;-73
2022/09/23 08:03:25;;;;;;;5.83;3.77;;;23.00;80.80;;;;;;5048499;28;20943;-73
2022/09/23 08:05:52;;;;;;;6.30;4.77;;;23.30;79.80;;;;;;5038940;28;20446;-73
2022/09/23 08:08:21;;;;;;;8.00;3.80;;;23.20;78.40;;;;;;5040836;28;20520;-72
2022/09/23 08:10:48;;;;;;;12.60;2.80;;;23.40;79.10;;;;;;5043280;28;20450;-74
2022/09/23 08:13:15;;;;;;;3.13;2.83;;;23.90;77.90;;;;;;5050408;28;20453;-72
2022/09/23 08:15:47;;;;;;;5.07;4.00;;;24.00;77.80;;;;;;5040264;28;21048;-76
2022/09/23 08:18:14;;;;;;;2.93;2.50;;;24.20;77.70;;;;;;5038898;28;20486;-74
2022/09/23 08:20:47;;;;;;;6.30;2.83;;;24.60;76.90;;;;;;5036718;28;20454;-75
2022/09/23 08:23:15;;;;;;;4.57;2.53;;;24.90;75.80;;;;;;5046116;28;20525;-74
2022/09/23 08:25:46;;;;;;;3.13;2.30;;;24.80;74.20;;;;;;5042659;28;20431;-74
2022/09/23 08:28:15;;;;;;;3.60;2.70;;;25.00;74.60;;;;;;5033748;28;21024;-73
2022/09/23 08:30:43;;;;;;;7.17;2.77;;;25.00;73.80;;;;;;5035251;28;20462;-74
2022/09/23 08:33:11;;;;;;;3.67;2.83;;;24.90;74.00;;;;;;5039119;28;20438;-73
2022/09/23 08:35:38;;;;;;;7.13;3.17;;;25.00;73.30;;;;;;5036455;28;20576;-73
2022/09/23 08:38:05;;;;;;;5.33;2.97;;;25.00;73.80;;;;;;5035063;28;20985;-75
2022/09/23 08:40:35;;;;;;;4.00;2.33;;;24.70;73.90;;;;;;5037023;28;20447;-74
2022/09/23 08:43:06;;;;;;;3.70;2.40;;;25.00;73.90;;;;;;5044085;28;20525;-75
2022/09/23 08:45:35;;;;;;;5.83;2.90;;;25.50;72.10;;;;;;5042764;28;20462;-75
2022/09/23 08:48:05;;;;;;;2.77;2.57;;;25.60;72.40;;;;;;5043336;28;20470;-72
2022/09/23 08:50:41;;;;;;;6.57;2.60;;;25.30;72.60;;;;;;5045536;28;20453;-74
2022/09/23 08:53:14;;;;;;;4.37;2.30;;;25.20;72.90;;;;;;5042177;28;20512;-73
2022/09/23 08:55:46;;;;;;;2.70;2.40;;;25.20;73.20;;;;;;5036241;28;20471;-73
2022/09/23 08:58:33;;;;;;;5.47;2.57;;;25.40;72.90;;;;;;5039139;28;20465;-73
2022/09/23 09:01:10;;;;;;;5.00;2.47;;;25.30;71.70;;;;;;5036949;28;20855;-73
2022/09/23 09:03:40;;;;;;;2.80;2.50;;;24.60;72.10;;;;;;5046216;28;20477;-74
2022/09/23 09:06:13;;;;;;;6.70;3.30;;;24.30;74.20;;;;;;5036001;28;20443;-74
2022/09/23 09:08:42;;;;;;;2.60;2.40;;;23.80;75.20;;;;;;5040138;28;20501;-73
2022/09/23 09:11:13;;;;;;;11.10;3.73;;;24.20;76.00;;;;;;5046837;28;20451;-74
2022/09/23 09:13:48;;;;;;;2.70;2.40;;;24.70;75.50;;;;;;5038418;28;20442;-74
2022/09/23 09:16:37;;;;;;;4.27;2.10;;;25.30;74.00;;;;;;5036411;28;20474;-75
2022/09/23 09:19:15;;;;;;;5.90;2.87;;;25.90;72.40;;;;;;5042537;28;20453;-74
2022/09/23 09:21:46;;;;;;;4.07;2.47;;;25.60;71.10;;;;;;5058263;28;20450;-75
2022/09/23 09:24:19;;;;;;;8.20;3.50;;;25.30;72.00;;;;;;5059205;28;20524;-76
2022/09/23 09:26:46;;;;;;;4.00;3.07;;;25.00;72.60;;;;;;5058590;28;20491;-74
2022/09/23 09:29:20;;;;;;;3.50;2.33;;;24.60;73.80;;;;;;5051588;28;20485;-75
2022/09/23 09:31:49;;;;;;;2.63;2.30;;;23.60;76.80;;;;;;5028014;28;20462;-74
2022/09/23 09:34:27;;;;;;;2.10;1.73;;;23.50;76.60;;;;;;5043085;28;20869;-75
2022/09/23 09:37:04;;;;;;;3.63;2.50;;;23.90;77.50;;;;;;5046932;28;20491;-76
2022/09/23 09:39:31;;;;;;;5.17;2.60;;;24.20;75.80;;;;;;5049941;28;20456;-74
2022/09/23 09:41:58;;;;;;;3.27;2.50;;;24.50;75.50;;;;;;5042032;28;20452;-73
2022/09/23 09:44:34;;;;;;;3.90;2.27;;;24.40;74.30;;;;;;5043224;28;20967;-75
2022/09/23 09:47:32;;;;;;;2.67;2.10;;;24.30;73.30;;;;;;5052459;28;20465;-75
2022/09/23 09:50:05;;;;;;;4.07;3.10;;;23.80;73.60;;;;;;5047411;28;20517;-74
2022/09/23 09:52:32;;;;;;;3.57;2.87;;;23.20;75.30;;;;;;5047298;28;20500;-75
2022/09/23 09:55:25;;;;;;;3.10;2.30;;;23.10;76.70;;;;;;5050035;28;20533;-74
2022/09/23 09:58:02;;;;;;;6.70;2.67;;;23.00;77.80;;;;;;5048976;28;20464;-74
2022/09/23 10:00:45;;;;;;;5.40;3.07;;;22.60;77.80;;;;;;5033803;28;20458;-74
2022/09/23 10:03:43;;;;;;;3.80;2.47;;;22.60;78.40;;;;;;5022470;28;20934;-74
2022/09/23 10:06:23;;;;;;;3.90;2.37;;;22.70;79.00;;;;;;5047747;28;20468;-74
2022/09/23 10:09:12;;;;;;;2.80;2.50;;;22.30;78.30;;;;;;5045945;28;20808;-75
2022/09/23 10:11:40;;;;;;;4.10;2.50;;;21.90;80.00;;;;;;5054528;28;20454;-75
2022/09/23 10:14:13;;;;;;;8.77;3.67;;;21.90;81.50;;;;;;5052068;28;20560;-74
2022/09/23 10:16:41;;;;;;;4.90;2.93;;;21.70;83.30;;;;;;5040900;28;20565;-74
2022/09/23 10:19:18;;;;;;;4.87;2.93;;;21.60;81.30;;;;;;5048047;28;20970;-74
2022/09/23 10:21:53;;;;;;;9.03;2.90;;;21.70;81.70;;;;;;5041855;28;20821;-75
2022/09/23 10:24:23;;;;;;;5.57;2.70;;;21.50;81.20;;;;;;5055446;28;20773;-74
2022/09/23 10:26:59;;;;;;;3.70;2.80;;;21.20;83.20;;;;;;5044306;28;21060;-76
2022/09/23 10:29:31;;;;;;;4.00;2.50;;;21.50;82.50;;;;;;5054459;28;20488;-75
2022/09/23 10:32:25;;;;;;;5.17;2.73;;;21.40;82.30;;;;;;5045313;28;20465;-74
2022/09/23 10:34:55;;;;;;;5.27;2.50;;;21.40;82.50;;;;;;5039373;28;20450;-74
2022/09/23 10:37:32;;;;;;;5.53;2.47;;;21.50;83.20;;;;;;5045177;28;20485;-75
2022/09/23 10:48:47;;;;;;;3.40;2.73;;;20.80;84.30;;;;;;5041473;28;20464;-75
2022/09/23 10:51:27;;;;;;;5.93;2.23;;;21.10;83.90;;;;;;5054104;28;20498;-75
2022/09/23 10:54:01;;;;;;;4.83;2.90;;;21.10;84.50;;;;;;5031271;28;20442;-76
2022/09/23 10:56:39;;;;;;;4.10;2.93;;;21.30;83.90;;;;;;5039915;28;20473;-74
2022/09/23 10:59:40;;;;;;;4.40;3.07;;;21.20;84.50;;;;;;5047972;28;20539;-75
2022/09/23 11:02:22;;;;;;;3.87;2.87;;;21.20;84.80;;;;;;5052211;28;20923;-75
2022/09/23 11:05:27;;;;;;;5.30;3.10;;;21.10;84.90;;;;;;5031812;28;20445;-75
2022/09/23 11:08:04;;;;;;;4.30;2.83;;;21.40;84.40;;;;;;5017119;28;20552;-75
2022/09/23 11:11:02;;;;;;;10.30;4.37;;;21.50;84.00;;;;;;5052352;28;20544;-75
2022/09/23 11:13:47;;;;;;;3.73;2.40;;;21.50;85.00;;;;;;5018982;28;20489;-77
2022/09/23 11:16:23;;;;;;;5.70;3.17;;;21.40;84.60;;;;;;5040136;28;20477;-75
2022/09/23 11:19:09;;;;;;;7.60;2.73;;;21.40;83.90;;;;;;5024575;28;20492;-75
2022/09/23 11:22:04;;;;;;;5.10;2.47;;;21.50;84.20;;;;;;5048696;28;20484;-76
2022/09/23 11:24:57;;;;;;;6.20;3.77;;;21.60;84.40;;;;;;5032539;28;20490;-76
2022/09/23 11:27:38;;;;;;;5.00;2.70;;;21.30;84.30;;;;;;5052634;28;20579;-76
2022/09/23 11:30:10;;;;;;;6.17;3.27;;;21.20;84.80;;;;;;5033483;28;20533;-74
2022/09/23 11:33:13;;;;;;;9.43;2.73;;;21.20;84.80;;;;;;5045598;28;20434;-76
2022/09/23 11:35:46;;;;;;;3.93;2.70;;;21.00;85.60;;;;;;5048981;28;20464;-74
2022/09/23 11:38:20;;;;;;;5.73;3.50;;;20.90;85.30;;;;;;5047844;28;20827;-76
2022/09/23 11:40:53;;;;;;;5.17;3.90;;;20.60;86.50;;;;;;5042979;28;20469;-75
2022/09/23 11:43:23;;;;;;;5.93;3.87;;;20.70;86.60;;;;;;5052379;28;20458;-75
2022/09/23 11:45:57;;;;;;;4.40;3.73;;;20.70;86.90;;;;;;5041691;28;20462;-76
2022/09/23 11:48:30;;;;;;;4.90;3.60;;;20.80;86.40;;;;;;5046872;28;20464;-75
2022/09/23 11:51:02;;;;;;;6.37;4.17;;;20.70;86.00;;;;;;5041658;28;20447;-74
2022/09/23 11:53:40;;;;;;;4.60;3.67;;;20.80;87.20;;;;;;5039092;28;20544;-74
2022/09/23 11:56:22;;;;;;;4.83;3.40;;;20.90;87.00;;;;;;5030923;28;20951;-73
2022/09/23 11:58:58;;;;;;;3.83;3.47;;;21.00;85.50;;;;;;5029381;28;20549;-74
2022/09/23 12:01:32;;;;;;;5.23;3.60;;;21.10;84.40;;;;;;5027999;28;20480;-76
2022/09/23 12:04:05;;;;;;;6.17;3.60;;;21.00;85.00;;;;;;5023834;28;20849;-74
2022/09/23 12:06:40;;;;;;;4.57;3.40;;;20.70;86.80;;;;;;5032001;28;20935;-74
2022/09/23 12:09:15;;;;;;;5.30;3.47;;;21.00;86.80;;;;;;5028462;28;20542;-74
2022/09/23 12:11:52;;;;;;;3.93;3.03;;;21.00;86.80;;;;;;5045718;28;20453;-75
2022/09/23 12:14:26;;;;;;;6.43;3.40;;;21.00;86.70;;;;;;5046648;28;20456;-76
2022/09/23 12:17:14;;;;;;;3.63;3.33;;;21.10;86.50;;;;;;5051293;28;20539;-75
2022/09/23 12:20:17;;;;;;;7.70;4.93;;;21.20;86.40;;;;;;5054534;28;20448;-73
2022/09/23 12:22:57;;;;;;;7.60;4.20;;;21.00;86.40;;;;;;5065199;28;20446;-75
2022/09/23 12:25:37;;;;;;;4.03;3.63;;;20.80;85.20;;;;;;5055238;28;20441;-74
2022/09/23 12:28:12;;;;;;;4.67;3.27;;;20.90;85.80;;;;;;5046033;28;20469;-74
2022/09/23 12:30:41;;;;;;;4.00;3.30;;;21.00;86.00;;;;;;5050452;28;20481;-75
2022/09/23 12:33:11;;;;;;;3.20;2.77;;;20.70;85.90;;;;;;5039143;28;20508;-75
2022/09/23 12:35:43;;;;;;;4.80;3.23;;;20.80;86.60;;;;;;5043553;28;20548;-75
2022/09/23 12:38:14;;;;;;;7.70;3.90;;;20.70;86.20;;;;;;5041958;28;20488;-74
2022/09/23 12:40:43;;;;;;;7.67;3.80;;;20.60;86.50;;;;;;5042399;28;20535;-74
2022/09/23 12:43:18;;;;;;;4.80;3.40;;;20.60;86.80;;;;;;5043124;28;20461;-75
2022/09/23 12:45:45;;;;;;;6.40;3.50;;;20.60;86.60;;;;;;5045049;28;20872;-75
2022/09/23 12:48:44;;;;;;;3.37;2.67;;;20.50;87.10;;;;;;5040568;28;20556;-75
2022/09/23 12:51:17;;;;;;;4.10;3.40;;;20.30;87.40;;;;;;5047506;28;20530;-74
2022/09/23 12:54:18;;;;;;;3.97;3.07;;;20.50;87.50;;;;;;5039508;28;20574;-73
2022/09/23 12:57:02;;;;;;;4.70;3.10;;;20.50;88.00;;;;;;5044373;28;20570;-74
2022/09/23 12:59:47;;;;;;;4.43;3.63;;;20.60;88.20;;;;;;5049100;28;21039;-74
2022/09/23 13:02:26;;;;;;;10.40;5.70;;;20.40;88.40;;;;;;5034943;28;20462;-74
2022/09/23 13:07:47;;;;;;;4.77;3.83;;;20.20;89.50;;;;;;5052458;28;20436;-74
2022/09/23 13:10:22;;;;;;;9.10;3.53;;;20.10;90.10;;;;;;5045007;28;20538;-75
2022/09/23 13:12:51;;;;;;;5.07;4.00;;;20.10;89.40;;;;;;5040206;28;20450;-73
2022/09/23 13:15:28;;;;;;;4.70;3.70;;;20.10;90.00;;;;;;5041076;28;20867;-74
2022/09/23 13:18:28;;;;;;;5.60;4.10;;;20.20;89.80;;;;;;5049438;28;20603;-75
2022/09/23 13:20:55;;;;;;;4.87;4.00;;;20.10;89.70;;;;;;5041274;28;20782;-75
2022/09/23 13:23:25;;;;;;;4.33;3.27;;;20.20;90.20;;;;;;5053164;28;20481;-73
2022/09/23 13:25:54;;;;;;;4.63;4.20;;;20.20;89.60;;;;;;5043116;28;20500;-75